EGDR - Culdrose
Distance from station: E 5mi, 14km
Updated: 10/23/2017 12:50am
Light rain, Drizzle, Overcast
Light rain, Drizzle, Overcast
 Wind from SW
Wind: SW 16 mph , 26 km/h
Temperature: 57°F , 14°C
Dew Point: 57°F , 14°C
Humidity: 100%
Barometer: 30 inHg , 1016 hPa
Summary: Light rain, Drizzle
Clouds: Overcast
Visibility: 0 mile , 0 km
Cloud details: Mostly Cloudy 0 ft
Overcast 100 ft
2017/10/23 07:50 EGDR 230750Z 23014KT 0200 -RADZ BKN000 OVC001 14/14 Q1016 RED NOSIG